createdAt,value
2018-05-16T00:02:41.385Z,13.40
2018-05-16T00:05:44.605Z,13.20
2018-05-16T00:08:47.058Z,13.20
2018-05-16T00:11:50.274Z,13.10
2018-05-16T00:14:52.733Z,13.00
2018-05-16T00:17:55.962Z,13.10
2018-05-16T00:20:58.422Z,13.10
2018-05-16T00:24:00.894Z,13.10
2018-05-16T00:27:03.338Z,13.00
2018-05-16T00:30:05.802Z,13.00
2018-05-16T00:33:08.265Z,13.00
2018-05-16T00:36:10.718Z,12.90
2018-05-16T00:39:13.177Z,12.80
2018-05-16T00:42:15.629Z,12.70
2018-05-16T00:45:18.870Z,12.50
2018-05-16T00:48:21.333Z,12.50
2018-05-16T00:51:33.852Z,12.40
2018-05-16T00:54:36.274Z,12.40
2018-05-16T00:57:38.745Z,12.30
2018-05-16T01:00:41.182Z,12.30
2018-05-16T01:03:43.651Z,12.20
2018-05-16T01:06:46.106Z,12.20
2018-05-16T01:09:49.333Z,12.00
2018-05-16T01:12:51.798Z,12.00
2018-05-16T01:15:54.257Z,12.00
2018-05-16T01:18:57.481Z,11.90
2018-05-16T01:21:59.970Z,11.90
2018-05-16T01:25:02.434Z,12.00
2018-05-16T01:28:04.904Z,12.00
2018-05-16T01:31:07.357Z,12.00
2018-05-16T01:34:10.585Z,11.80
2018-05-16T01:37:13.039Z,11.80
2018-05-16T01:40:15.498Z,11.70
2018-05-16T01:43:18.734Z,11.60
2018-05-16T01:46:21.177Z,11.60
2018-05-16T01:49:24.412Z,11.50
2018-05-16T01:52:26.869Z,11.50
2018-05-16T01:55:29.329Z,11.50
2018-05-16T01:58:31.790Z,11.50
2018-05-16T02:01:35.014Z,11.30
2018-05-16T02:04:37.476Z,11.30
2018-05-16T02:07:40.784Z,11.40
2018-05-16T02:10:43.245Z,11.30
2018-05-16T02:13:46.491Z,11.20
2018-05-16T02:16:48.939Z,11.20
2018-05-16T02:19:51.401Z,11.20
2018-05-16T02:22:53.857Z,11.20
2018-05-16T02:25:57.086Z,11.10
2018-05-16T02:28:59.562Z,11.20
2018-05-16T02:32:02.015Z,11.20
2018-05-16T02:35:05.249Z,11.20
2018-05-16T02:38:07.709Z,11.10
2018-05-16T02:41:10.177Z,11.10
2018-05-16T02:44:12.641Z,11.20
2018-05-16T02:47:15.854Z,11.10
2018-05-16T02:50:18.318Z,11.10
2018-05-16T02:53:21.543Z,11.00
2018-05-16T02:56:24.019Z,11.00
2018-05-16T02:59:26.478Z,11.10
2018-05-16T03:02:28.945Z,11.00
2018-05-16T03:05:31.414Z,11.00
2018-05-16T03:08:34.647Z,11.00
2018-05-16T03:11:37.105Z,11.00
2018-05-16T03:14:39.565Z,11.00
2018-05-16T03:17:42.786Z,11.00
2018-05-16T03:20:45.258Z,11.00
2018-05-16T03:23:47.700Z,10.90
2018-05-16T03:26:50.938Z,10.90
2018-05-16T03:29:53.406Z,10.90
2018-05-16T03:32:55.853Z,10.90
2018-05-16T03:35:59.082Z,10.90
2018-05-16T03:39:01.538Z,10.90
2018-05-16T03:42:04.763Z,10.90
2018-05-16T03:45:07.225Z,10.90
2018-05-16T03:48:09.677Z,10.90
2018-05-16T03:51:12.919Z,11.00
2018-05-16T03:54:15.370Z,10.90
2018-05-16T03:57:29.767Z,11.00
2018-05-16T04:00:44.084Z,11.00
2018-05-16T04:03:58.493Z,11.10
2018-05-16T04:07:00.962Z,11.10
2018-05-16T04:10:03.418Z,11.20
2018-05-16T04:13:05.883Z,11.30
2018-05-16T04:16:08.355Z,11.30
2018-05-16T04:19:10.847Z,11.30
2018-05-16T04:22:13.307Z,11.30
2018-05-16T04:25:15.750Z,11.30
2018-05-16T04:28:18.977Z,11.60
2018-05-16T04:31:21.441Z,11.60
2018-05-16T04:34:23.897Z,11.50
2018-05-16T04:37:27.129Z,11.70
2018-05-16T04:40:29.602Z,11.70
2018-05-16T04:43:32.053Z,11.70
2018-05-16T04:46:35.282Z,11.90
2018-05-16T04:49:37.737Z,11.90
2018-05-16T04:52:40.205Z,12.00
2018-05-16T04:55:42.666Z,12.00
2018-05-16T04:58:45.126Z,12.10
2018-05-16T05:01:47.586Z,12.10
2018-05-16T05:04:50.041Z,12.30
2018-05-16T05:07:52.501Z,12.40
2018-05-16T05:10:54.957Z,12.70
2018-05-16T05:13:58.174Z,12.90
2018-05-16T05:17:00.646Z,12.90
2018-05-16T05:20:03.119Z,12.90
2018-05-16T05:23:06.327Z,13.00
2018-05-16T05:26:08.781Z,12.90
2018-05-16T05:29:11.230Z,12.90
2018-05-16T05:32:13.688Z,13.00
2018-05-16T05:35:16.142Z,13.10
2018-05-16T05:38:18.605Z,13.20
2018-05-16T05:41:21.078Z,13.20
2018-05-16T05:44:23.521Z,13.40
2018-05-16T05:47:26.762Z,13.50
2018-05-16T05:50:29.215Z,13.40
2018-05-16T05:53:32.437Z,13.20
2018-05-16T05:56:34.898Z,13.20
2018-05-16T05:59:37.374Z,13.30
2018-05-16T06:02:39.838Z,13.30
2018-05-16T06:05:42.290Z,13.20
2018-05-16T06:08:44.754Z,13.20
2018-05-16T06:11:47.217Z,13.50
2018-05-16T06:14:49.663Z,13.80
2018-05-16T06:17:52.136Z,14.10
2018-05-16T06:20:54.581Z,14.40
2018-05-16T06:23:57.817Z,14.80
2018-05-16T06:27:00.315Z,14.80
2018-05-16T06:30:02.750Z,15.00
2018-05-16T06:33:05.222Z,15.10
2018-05-16T06:36:08.433Z,15.50
2018-05-16T06:39:10.942Z,15.40
2018-05-16T06:42:13.370Z,15.30
2018-05-16T06:45:15.821Z,15.30
2018-05-16T06:48:18.282Z,15.20
2018-05-16T06:51:20.741Z,15.20
2018-05-16T06:54:23.201Z,15.10
2018-05-16T06:57:25.658Z,15.40
2018-05-16T07:00:28.166Z,15.60
2018-05-16T07:03:30.629Z,15.70
2018-05-16T07:06:33.087Z,16.00
2018-05-16T07:09:36.313Z,16.90
2018-05-16T07:12:38.791Z,16.80
2018-05-16T07:15:41.246Z,17.00
2018-05-16T07:18:56.330Z,17.60
2018-05-16T07:21:58.786Z,18.00
2018-05-16T07:25:01.245Z,18.20
2018-05-16T07:28:04.478Z,18.80
2018-05-16T07:31:06.927Z,18.80
2018-05-16T07:34:10.158Z,21.20
2018-05-16T07:37:12.609Z,21.10
2018-05-16T07:40:15.073Z,21.90
2018-05-16T07:43:18.299Z,24.20
2018-05-16T07:46:20.742Z,24.20
2018-05-16T07:49:23.978Z,26.40
2018-05-16T07:52:26.428Z,26.30
2018-05-16T07:55:28.889Z,26.70
2018-05-16T07:58:32.118Z,26.60
2018-05-16T08:01:34.590Z,26.60
2018-05-16T08:04:37.053Z,25.20
2018-05-16T08:07:39.506Z,25.30
2018-05-16T08:10:42.730Z,26.10
2018-05-16T08:13:45.202Z,26.10
2018-05-16T08:16:47.660Z,25.80
2018-05-16T08:19:50.893Z,25.00
2018-05-16T08:22:53.349Z,25.00
2018-05-16T08:25:55.809Z,24.80
2018-05-16T08:28:59.038Z,24.60
2018-05-16T08:32:01.527Z,24.60
2018-05-16T08:35:03.985Z,24.20
2018-05-16T08:38:06.446Z,23.30
2018-05-16T08:41:09.677Z,22.90
2018-05-16T08:44:12.139Z,22.90
2018-05-16T08:47:14.590Z,23.50
2018-05-16T08:50:17.809Z,23.30
2018-05-16T08:53:20.265Z,23.30
2018-05-16T08:56:22.729Z,23.80
2018-05-16T08:59:25.970Z,23.80
2018-05-16T09:02:28.434Z,23.80
2018-05-16T09:05:30.897Z,23.80
2018-05-16T09:08:33.341Z,23.40
2018-05-16T09:11:36.565Z,22.70
2018-05-16T09:15:03.956Z,22.60
2018-05-16T09:18:06.405Z,22.20
2018-05-16T09:21:08.866Z,21.40
2018-05-16T09:24:12.094Z,20.80
2018-05-16T09:27:14.554Z,20.80
2018-05-16T09:30:28.244Z,20.50
2018-05-16T09:33:32.194Z,20.10
2018-05-16T09:36:34.652Z,20.10
2018-05-16T09:39:37.867Z,20.40
2018-05-16T09:42:40.330Z,20.30
2018-05-16T09:45:42.842Z,20.50
2018-05-16T09:48:47.010Z,19.90
2018-05-16T09:51:49.486Z,19.90
2018-05-16T09:54:51.943Z,19.80
2018-05-16T09:58:00.546Z,19.70
2018-05-16T10:01:03.014Z,19.60
2018-05-16T10:04:12.165Z,19.50
2018-05-16T10:07:14.933Z,19.30
2018-05-16T10:10:17.401Z,19.10
2018-05-16T10:13:20.762Z,19.00
2018-05-16T10:16:24.011Z,19.00
2018-05-16T10:19:26.465Z,19.00
2018-05-16T10:22:28.922Z,18.70
2018-05-16T10:25:32.150Z,18.60
2018-05-16T10:28:34.622Z,18.50
2018-05-16T10:31:37.086Z,18.30
2018-05-16T10:34:39.625Z,18.20
2018-05-16T10:37:42.774Z,18.00
2018-05-16T10:40:45.234Z,18.00
2018-05-16T10:43:47.674Z,18.00
2018-05-16T10:46:50.137Z,17.90
2018-05-16T10:49:52.586Z,18.00
2018-05-16T10:52:55.054Z,18.10
2018-05-16T10:55:57.523Z,18.10
2018-05-16T10:58:59.961Z,18.00
2018-05-16T11:02:03.194Z,18.30
2018-05-16T11:05:05.642Z,18.30
2018-05-16T11:08:08.869Z,18.60
2018-05-16T11:11:11.329Z,18.60
2018-05-16T11:14:13.777Z,18.60
2018-05-16T11:17:16.235Z,18.30
2018-05-16T11:20:18.694Z,18.50
2018-05-16T11:23:21.162Z,18.30
2018-05-16T11:26:23.627Z,18.00
2018-05-16T11:29:26.123Z,17.90
2018-05-16T11:32:28.585Z,18.00
2018-05-16T11:35:31.038Z,17.90
2018-05-16T11:38:33.493Z,17.80
2018-05-16T11:41:36.722Z,17.70
2018-05-16T11:44:39.165Z,17.70
2018-05-16T11:47:42.406Z,17.80
2018-05-16T11:50:44.856Z,17.80
2018-05-16T11:53:47.314Z,18.20
2018-05-16T11:56:50.537Z,17.90
2018-05-16T11:59:52.990Z,17.80
2018-05-16T12:02:55.483Z,17.70
2018-05-16T12:05:57.898Z,17.60
2018-05-16T12:09:00.357Z,17.50
2018-05-16T12:12:02.823Z,17.70
2018-05-16T12:15:08.954Z,17.80
2018-05-16T12:18:11.424Z,17.70
2018-05-16T12:21:13.874Z,17.60
2018-05-16T12:24:16.338Z,17.80
2018-05-16T12:27:18.804Z,18.00
2018-05-16T12:30:21.254Z,17.80
2018-05-16T12:33:23.723Z,17.80
2018-05-16T12:36:26.952Z,17.70
2018-05-16T12:39:29.391Z,17.70
2018-05-16T12:42:32.611Z,17.40
2018-05-16T12:45:35.079Z,17.30
2018-05-16T12:52:20.078Z,16.80
2018-05-16T12:55:22.554Z,16.80
2018-05-16T12:58:25.034Z,16.80
2018-05-16T13:01:27.519Z,16.80
2018-05-16T13:04:30.715Z,16.80
2018-05-16T13:07:33.276Z,16.80
2018-05-16T13:10:35.765Z,16.80
2018-05-16T13:13:38.210Z,16.70
2018-05-16T13:16:41.430Z,16.50
2018-05-16T13:19:43.912Z,16.50
2018-05-16T13:22:46.366Z,16.50
2018-05-16T13:25:49.598Z,16.70
2018-05-16T13:28:52.065Z,16.60
2018-05-16T13:31:54.522Z,16.80
2018-05-16T13:34:56.982Z,16.90
2018-05-16T13:38:00.282Z,17.20
2018-05-16T13:41:03.516Z,17.40
2018-05-16T13:44:05.974Z,17.30
2018-05-16T13:47:08.414Z,17.60
2018-05-16T13:50:10.869Z,17.70
2018-05-16T13:53:13.324Z,17.60
2018-05-16T13:56:15.787Z,17.70
2018-05-16T13:59:18.241Z,17.70
2018-05-16T14:02:21.457Z,17.70
2018-05-16T14:05:23.919Z,17.60
2018-05-16T14:08:26.365Z,17.50
2018-05-16T14:11:28.829Z,17.30
2018-05-16T14:14:31.284Z,17.30
2018-05-16T14:17:33.732Z,17.40
2018-05-16T14:20:36.185Z,17.40
2018-05-16T14:23:39.414Z,17.60
2018-05-16T14:26:41.861Z,17.60
2018-05-16T14:29:45.086Z,17.70
2018-05-16T14:32:47.538Z,17.70
2018-05-16T14:35:50.782Z,17.70
2018-05-16T14:39:01.562Z,17.70
2018-05-16T14:42:04.016Z,17.60
2018-05-16T14:45:06.478Z,17.50
2018-05-16T14:48:08.943Z,17.50
2018-05-16T14:51:11.410Z,17.50
2018-05-16T14:54:14.633Z,17.30
2018-05-16T14:57:17.081Z,17.30
2018-05-16T15:00:20.310Z,17.20
2018-05-16T15:03:22.758Z,17.20
2018-05-16T15:06:43.989Z,17.20
2018-05-16T15:09:46.461Z,17.20
2018-05-16T15:12:48.918Z,17.30
2018-05-16T15:15:52.145Z,17.30
2018-05-16T15:19:14.298Z,17.30
2018-05-16T15:22:16.768Z,17.40
2018-05-16T15:25:19.231Z,17.40
2018-05-16T15:28:21.684Z,17.50
2018-05-16T15:31:28.661Z,17.50
2018-05-16T15:34:31.901Z,17.60
2018-05-16T15:37:34.357Z,17.60
2018-05-16T15:40:36.819Z,17.60
2018-05-16T15:43:39.270Z,17.60
2018-05-16T15:46:41.744Z,17.70
2018-05-16T15:49:44.181Z,17.80
2018-05-16T15:52:46.641Z,17.70
2018-05-16T15:55:49.114Z,17.50
2018-05-16T15:58:51.567Z,17.50
2018-05-16T16:01:54.793Z,17.50
2018-05-16T16:04:57.259Z,17.40
2018-05-16T16:07:59.790Z,17.50
2018-05-16T16:11:02.172Z,17.50
2018-05-16T16:14:04.766Z,17.70
2018-05-16T16:17:08.001Z,17.60
2018-05-16T16:20:10.464Z,17.60
2018-05-16T16:23:12.930Z,17.60
2018-05-16T16:26:15.390Z,17.50
2018-05-16T16:29:17.926Z,17.40
2018-05-16T16:32:20.393Z,17.40
2018-05-16T16:35:22.856Z,17.40
2018-05-16T16:38:25.313Z,17.40
2018-05-16T16:41:28.537Z,17.50
2018-05-16T16:44:30.985Z,17.50
2018-05-16T16:47:33.461Z,17.60
2018-05-16T16:50:36.701Z,17.40
2018-05-16T16:53:39.164Z,17.40
2018-05-16T16:56:41.636Z,17.30
2018-05-16T16:59:44.086Z,17.30
2018-05-16T17:02:47.329Z,17.00
2018-05-16T17:05:49.800Z,17.00
2018-05-16T17:08:52.250Z,16.90
2018-05-16T17:11:54.711Z,16.80
2018-05-16T17:15:05.128Z,16.50
2018-05-16T17:18:07.578Z,16.50
2018-05-16T17:21:10.026Z,16.40
2018-05-16T17:24:13.262Z,16.30
2018-05-16T17:27:15.705Z,16.30
2018-05-16T17:30:18.163Z,16.20
2018-05-16T17:33:20.610Z,16.20
2018-05-16T17:36:23.130Z,16.10
2018-05-16T17:39:26.360Z,16.00
2018-05-16T17:42:28.817Z,16.00
2018-05-16T17:45:31.270Z,16.00
2018-05-16T17:48:33.789Z,16.00
2018-05-16T17:51:36.249Z,16.00
2018-05-16T17:54:38.705Z,16.10
2018-05-16T17:57:41.925Z,16.10
2018-05-16T18:00:44.384Z,16.10
2018-05-16T18:03:47.610Z,16.00
2018-05-16T18:06:50.075Z,16.00
2018-05-16T18:09:52.542Z,15.90
2018-05-16T18:16:44.867Z,15.90
2018-05-16T18:19:48.353Z,15.80
2018-05-16T18:22:50.816Z,15.80
2018-05-16T18:25:53.257Z,15.80
2018-05-16T18:28:55.722Z,15.90
2018-05-16T18:31:58.942Z,16.00
2018-05-16T18:35:01.415Z,15.90
2018-05-16T18:38:03.882Z,16.00
2018-05-16T18:41:06.329Z,16.00
2018-05-16T18:44:09.562Z,16.00
2018-05-16T18:47:12.009Z,16.00
2018-05-16T18:50:15.254Z,15.90
2018-05-16T18:53:17.719Z,15.90
2018-05-16T18:56:20.170Z,15.90
2018-05-16T18:59:23.387Z,15.80
2018-05-16T19:02:25.833Z,15.80
2018-05-16T19:05:29.062Z,15.70
2018-05-16T19:08:31.523Z,15.70
2018-05-16T19:11:33.966Z,15.70
2018-05-16T19:14:37.196Z,15.70
2018-05-16T19:17:39.676Z,15.60
2018-05-16T19:20:42.125Z,15.60
2018-05-16T19:23:45.354Z,15.60
2018-05-16T19:26:47.802Z,15.60
2018-05-16T19:29:51.034Z,15.50
2018-05-16T19:32:53.494Z,15.40
2018-05-16T19:35:55.953Z,15.40
2018-05-16T19:38:58.425Z,15.30
2018-05-16T19:42:00.877Z,15.30
2018-05-16T19:45:03.330Z,15.20
2018-05-16T19:48:05.802Z,15.20
2018-05-16T19:51:08.253Z,15.20
2018-05-16T19:54:10.710Z,15.20
2018-05-16T19:57:13.938Z,15.20
2018-05-16T20:00:16.385Z,15.20
2018-05-16T20:03:18.920Z,15.30
2018-05-16T20:06:25.926Z,15.20
2018-05-16T20:09:29.321Z,15.30
2018-05-16T20:12:33.742Z,15.30
2018-05-16T20:15:36.202Z,15.30
2018-05-16T20:18:38.666Z,15.20
2018-05-16T20:21:41.126Z,15.30
2018-05-16T20:24:43.587Z,15.20
2018-05-16T20:27:46.042Z,15.20
2018-05-16T20:30:48.497Z,15.10
2018-05-16T20:33:50.962Z,15.10
2018-05-16T20:36:53.410Z,15.00
2018-05-16T20:39:55.911Z,15.00
2018-05-16T20:42:58.318Z,15.10
2018-05-16T20:46:00.773Z,15.10
2018-05-16T20:49:03.229Z,15.10
2018-05-16T20:52:05.681Z,15.10
2018-05-16T20:55:08.142Z,15.10
2018-05-16T20:58:10.592Z,15.20
2018-05-16T21:01:13.049Z,15.20
2018-05-16T21:04:15.506Z,15.10
2018-05-16T21:07:17.961Z,15.10
2018-05-16T21:10:20.430Z,15.10
2018-05-16T21:13:22.870Z,15.00
2018-05-16T21:16:25.343Z,15.10
2018-05-16T21:19:27.804Z,15.10
2018-05-16T21:22:30.249Z,15.10
2018-05-16T21:25:32.712Z,15.10
2018-05-16T21:28:35.266Z,15.10
2018-05-16T21:31:37.617Z,15.00
2018-05-16T21:34:40.095Z,15.00
2018-05-16T21:37:42.545Z,15.00
2018-05-16T21:40:45.005Z,15.00
2018-05-16T21:43:47.459Z,14.90
2018-05-16T21:46:50.677Z,14.80
2018-05-16T21:49:53.139Z,14.70
2018-05-16T21:52:55.585Z,14.70
2018-05-16T21:55:58.050Z,14.60
2018-05-16T21:59:00.514Z,14.50
2018-05-16T22:02:02.978Z,14.40
2018-05-16T22:05:05.434Z,14.20
2018-05-16T22:08:07.904Z,14.10
2018-05-16T22:11:10.353Z,14.10
2018-05-16T22:14:12.818Z,14.00
2018-05-16T22:17:15.273Z,14.00
2018-05-16T22:20:17.727Z,13.90
2018-05-16T22:23:20.174Z,13.90
2018-05-16T22:26:22.640Z,13.80
2018-05-16T22:29:25.086Z,13.80
2018-05-16T22:32:33.310Z,13.70
2018-05-16T22:35:41.572Z,13.70
2018-05-16T22:38:49.629Z,13.60
2018-05-16T22:41:57.888Z,13.60
2018-05-16T22:45:06.081Z,13.50
2018-05-16T22:48:09.301Z,13.40
2018-05-16T22:51:11.766Z,13.40
2018-05-16T22:54:14.219Z,13.30
2018-05-16T22:57:17.429Z,13.20
2018-05-16T23:00:23.365Z,13.20
2018-05-16T23:03:25.812Z,13.20
2018-05-16T23:06:28.273Z,13.20
2018-05-16T23:09:32.640Z,13.10
2018-05-16T23:12:35.089Z,13.10
2018-05-16T23:15:37.547Z,13.00
2018-05-16T23:18:40.395Z,13.00
2018-05-16T23:21:43.611Z,12.90
2018-05-16T23:24:46.061Z,12.90
2018-05-16T23:27:49.301Z,12.90
2018-05-16T23:30:51.822Z,12.90
2018-05-16T23:33:54.209Z,12.80
2018-05-16T23:36:57.438Z,12.80
2018-05-16T23:39:59.899Z,12.80
2018-05-16T23:43:02.347Z,12.80
2018-05-16T23:46:05.570Z,12.70
2018-05-16T23:49:08.019Z,12.70
2018-05-16T23:52:11.241Z,12.80
2018-05-16T23:55:13.706Z,12.70
2018-05-16T23:58:16.917Z,12.70
